Time;durP1;ratioP1;P1;durP2;ratioP2;P2;SDS_P1;SDS_P2;PMS_P1;PMS_P2;Temp;Humidity;BMP_temperature;BMP_pressure;BME280_temperature;BME280_humidity;BME280_pressure;Samples;Min_cycle;Max_cycle;Signal;HPM_P1;HPM_P2
2020/12/20 00:00:08;;;;;;;19.08;11.93;;;9.80;94.80;;;;;;5033728;28;20026;-69
2020/12/20 00:02:34;;;;;;;32.45;19.10;;;9.80;94.80;;;;;;5034024;28;20033;-74
2020/12/20 00:04:59;;;;;;;32.70;18.48;;;9.80;94.70;;;;;;5032974;28;20036;-70
2020/12/20 00:07:25;;;;;;;23.90;14.55;;;9.90;94.80;;;;;;5033817;28;20018;-77
2020/12/20 00:09:50;;;;;;;23.98;12.73;;;9.90;94.80;;;;;;5034356;28;20030;-74
2020/12/20 00:12:16;;;;;;;23.02;12.30;;;9.80;94.80;;;;;;5032799;28;20028;-77
2020/12/20 00:14:41;;;;;;;13.32;7.68;;;9.90;94.80;;;;;;5033751;28;20498;-70
2020/12/20 00:17:09;;;;;;;16.70;7.45;;;9.90;94.70;;;;;;5033436;28;20030;-77
2020/12/20 00:19:36;;;;;;;10.57;6.50;;;9.90;94.70;;;;;;5032794;28;20026;-70
2020/12/20 00:22:04;;;;;;;9.98;6.85;;;9.90;94.70;;;;;;5033149;28;20064;-70
2020/12/20 00:24:30;;;;;;;7.80;5.38;;;9.90;94.70;;;;;;5033987;28;20021;-71
2020/12/20 00:26:57;;;;;;;8.05;5.45;;;9.90;94.70;;;;;;5032537;28;20036;-70
2020/12/20 00:29:22;;;;;;;11.55;6.00;;;9.90;94.70;;;;;;5015711;28;20036;-71
2020/12/20 00:31:48;;;;;;;7.53;5.15;;;9.90;94.70;;;;;;5033287;28;20029;-71
2020/12/20 00:34:14;;;;;;;11.18;6.15;;;9.90;94.60;;;;;;5032236;28;20032;-69
2020/12/20 00:36:45;;;;;;;7.85;4.68;;;10.00;94.60;;;;;;5015451;28;20045;-70
2020/12/20 00:39:12;;;;;;;10.13;5.15;;;10.00;94.60;;;;;;5033084;28;20287;-70
2020/12/20 00:41:37;;;;;;;11.75;7.40;;;10.00;94.60;;;;;;5032290;28;20049;-72
2020/12/20 00:44:04;;;;;;;7.97;5.78;;;10.00;94.60;;;;;;5032782;28;20039;-70
2020/12/20 00:46:29;;;;;;;11.82;4.82;;;10.00;94.80;;;;;;5015439;28;20394;-70
2020/12/20 00:48:55;;;;;;;8.20;4.80;;;10.00;94.50;;;;;;5032186;28;20025;-75
2020/12/20 00:51:20;;;;;;;6.35;4.32;;;10.00;94.50;;;;;;5033172;28;20580;-77
2020/12/20 00:53:46;;;;;;;10.18;4.85;;;10.10;94.50;;;;;;5032460;28;20056;-69
2020/12/20 00:56:14;;;;;;;9.93;4.40;;;10.10;94.50;;;;;;5033107;28;20041;-71
2020/12/20 00:58:41;;;;;;;8.40;4.03;;;10.10;94.50;;;;;;5033169;28;20021;-70
2020/12/20 01:01:08;;;;;;;6.43;4.20;;;10.00;94.50;;;;;;5032247;28;20112;-70
2020/12/20 01:03:34;;;;;;;13.63;4.82;;;10.00;94.50;;;;;;5032885;28;20385;-72
2020/12/20 01:06:00;;;;;;;7.45;3.80;;;10.00;94.50;;;;;;5032738;28;20466;-70
2020/12/20 01:08:26;;;;;;;7.95;5.03;;;10.00;94.50;;;;;;5032655;28;20033;-71
2020/12/20 01:10:52;;;;;;;12.88;6.78;;;10.00;94.50;;;;;;5032783;28;20487;-73
2020/12/20 01:13:18;;;;;;;22.08;12.43;;;10.00;94.50;;;;;;5033374;28;20108;-74
2020/12/20 01:15:43;;;;;;;17.65;10.68;;;10.00;94.50;;;;;;5032280;28;20482;-70
2020/12/20 01:18:09;;;;;;;16.88;9.13;;;10.00;94.50;;;;;;5032512;28;20378;-70
2020/12/20 01:20:34;;;;;;;13.13;7.13;;;10.00;94.40;;;;;;5015372;28;20037;-73
2020/12/20 01:23:00;;;;;;;10.80;7.03;;;10.00;94.40;;;;;;5031750;28;20017;-70
2020/12/20 01:25:25;;;;;;;21.55;11.25;;;10.00;94.40;;;;;;5033007;28;20022;-76
2020/12/20 01:27:52;;;;;;;14.38;7.70;;;10.00;94.50;;;;;;5033117;28;20031;-69
2020/12/20 01:30:17;;;;;;;15.68;8.02;;;10.00;94.50;;;;;;5032304;28;20351;-69
2020/12/20 01:32:43;;;;;;;15.57;8.07;;;9.90;94.50;;;;;;5032705;28;20068;-70
2020/12/20 01:35:10;;;;;;;17.75;8.85;;;10.00;94.50;;;;;;5014698;28;20485;-69
2020/12/20 01:37:35;;;;;;;11.70;6.60;;;10.00;94.50;;;;;;5031946;28;20413;-70
2020/12/20 01:40:01;;;;;;;12.90;5.43;;;9.90;94.50;;;;;;5032174;28;20018;-71
2020/12/20 01:42:27;;;;;;;15.32;5.72;;;9.90;94.50;;;;;;5032626;28;20421;-69
2020/12/20 01:44:52;;;;;;;12.32;5.90;;;9.90;94.50;;;;;;5013946;28;20010;-72
2020/12/20 01:47:19;;;;;;;8.82;5.20;;;9.90;94.60;;;;;;5032925;28;20028;-70
2020/12/20 01:49:45;;;;;;;10.43;5.65;;;9.90;94.50;;;;;;5015053;28;20017;-70
2020/12/20 01:52:10;;;;;;;7.05;4.53;;;9.90;94.50;;;;;;5031908;28;20099;-77
2020/12/20 01:54:37;;;;;;;10.20;5.28;;;9.90;94.60;;;;;;5032999;28;20033;-74
2020/12/20 01:57:03;;;;;;;8.95;4.22;;;9.90;94.50;;;;;;5031911;28;20033;-75
2020/12/20 01:59:30;;;;;;;9.75;4.60;;;9.90;94.60;;;;;;5033909;28;20033;-75
2020/12/20 02:01:58;;;;;;;8.00;4.85;;;9.90;94.60;;;;;;5036215;28;20021;-76
2020/12/20 02:04:25;;;;;;;9.35;3.85;;;9.90;94.50;;;;;;5035912;28;20105;-76
2020/12/20 02:06:51;;;;;;;7.18;4.13;;;9.90;94.50;;;;;;5018537;28;20109;-74
2020/12/20 02:09:17;;;;;;;6.90;4.10;;;9.90;94.50;;;;;;5035655;28;20104;-69
2020/12/20 02:11:43;;;;;;;8.38;3.78;;;9.90;94.50;;;;;;5026871;28;20113;-75
2020/12/20 02:14:08;;;;;;;8.05;3.47;;;9.90;94.50;;;;;;5015894;28;20470;-72
2020/12/20 02:16:34;;;;;;;10.98;4.25;;;10.00;94.50;;;;;;5030833;28;20033;-74
2020/12/20 02:18:59;;;;;;;5.72;4.18;;;9.90;94.50;;;;;;5035176;28;20021;-72
2020/12/20 02:21:25;;;;;;;6.63;3.53;;;9.90;94.50;;;;;;5036032;28;20049;-70
2020/12/20 02:23:51;;;;;;;6.28;3.58;;;9.90;94.50;;;;;;5017983;28;20025;-74
2020/12/20 02:26:19;;;;;;;5.57;3.63;;;9.90;94.50;;;;;;5035265;28;20036;-74
2020/12/20 02:28:49;;;;;;;10.27;4.03;;;9.80;94.50;;;;;;5021233;28;20025;-76
2020/12/20 02:31:14;;;;;;;5.57;3.45;;;9.80;94.50;;;;;;5015837;28;20084;-77
2020/12/20 02:33:40;;;;;;;7.20;3.67;;;9.80;94.50;;;;;;5015363;28;20433;-75
2020/12/20 02:36:05;;;;;;;8.43;3.60;;;9.80;94.60;;;;;;5015719;28;20084;-71
2020/12/20 02:38:31;;;;;;;7.90;3.65;;;9.80;94.60;;;;;;5015798;28;20030;-74
2020/12/20 02:40:57;;;;;;;7.85;3.67;;;9.80;94.60;;;;;;5014854;28;20042;-73
2020/12/20 02:43:23;;;;;;;10.77;4.13;;;9.80;94.60;;;;;;5015863;28;20113;-74
2020/12/20 02:45:49;;;;;;;6.15;3.67;;;9.70;94.60;;;;;;5015660;28;20034;-73
2020/12/20 02:48:14;;;;;;;15.57;4.57;;;9.80;94.60;;;;;;5014881;28;20028;-77
2020/12/20 02:50:40;;;;;;;10.30;3.97;;;9.70;94.60;;;;;;5015673;28;20026;-70
2020/12/20 02:53:05;;;;;;;7.00;3.75;;;9.70;94.60;;;;;;5015292;28;20030;-73
2020/12/20 02:55:31;;;;;;;9.32;3.80;;;9.70;94.60;;;;;;5014895;28;20038;-73
2020/12/20 02:57:57;;;;;;;7.75;3.80;;;9.70;94.70;;;;;;5015340;28;20096;-71
2020/12/20 03:00:23;;;;;;;8.38;3.63;;;9.70;94.70;;;;;;5014830;28;20026;-70
2020/12/20 03:02:48;;;;;;;5.65;3.88;;;9.70;95.00;;;;;;4998049;28;20030;-69
2020/12/20 03:05:14;;;;;;;8.32;3.85;;;9.70;94.70;;;;;;5029575;28;20416;-69
2020/12/20 03:07:40;;;;;;;5.13;3.55;;;9.70;94.70;;;;;;5034497;28;20018;-74
2020/12/20 03:10:06;;;;;;;7.55;3.83;;;9.70;94.70;;;;;;5016580;28;20544;-70
2020/12/20 03:12:32;;;;;;;5.40;3.70;;;9.70;94.70;;;;;;5034380;28;20022;-74
2020/12/20 03:14:57;;;;;;;10.05;4.35;;;9.70;94.70;;;;;;5034014;28;20087;-76
2020/12/20 03:17:23;;;;;;;10.50;4.10;;;9.70;94.70;;;;;;5034746;28;20087;-71
2020/12/20 03:19:49;;;;;;;10.00;3.83;;;9.70;94.70;;;;;;5035221;28;20101;-71
2020/12/20 03:22:15;;;;;;;8.05;3.95;;;9.80;94.70;;;;;;5034191;28;20057;-76
2020/12/20 03:24:41;;;;;;;10.20;3.92;;;9.80;94.70;;;;;;5034704;28;20029;-71
2020/12/20 03:27:07;;;;;;;10.05;4.43;;;9.70;94.60;;;;;;5034068;28;20025;-73
2020/12/20 03:29:33;;;;;;;6.25;3.70;;;9.70;94.70;;;;;;5016317;28;20104;-75
2020/12/20 03:31:59;;;;;;;7.65;3.53;;;9.70;94.70;;;;;;5034187;28;20159;-70
2020/12/20 03:34:24;;;;;;;7.28;3.38;;;9.70;94.70;;;;;;5034945;28;20029;-75
2020/12/20 03:36:50;;;;;;;6.32;3.40;;;9.70;94.70;;;;;;5033973;28;20033;-70
2020/12/20 03:39:16;;;;;;;10.85;4.13;;;9.80;94.70;;;;;;5033964;28;20048;-74
2020/12/20 03:41:42;;;;;;;7.30;3.47;;;9.80;94.70;;;;;;5034184;28;20050;-75
2020/12/20 03:44:07;;;;;;;6.57;3.65;;;9.80;94.70;;;;;;5033390;28;20386;-74
2020/12/20 03:46:33;;;;;;;9.43;4.18;;;9.80;94.70;;;;;;5034417;28;20022;-72
2020/12/20 03:48:58;;;;;;;9.07;3.83;;;9.80;94.70;;;;;;5033843;28;20021;-70
2020/12/20 03:51:24;;;;;;;5.90;3.20;;;9.80;94.70;;;;;;5033442;28;20029;-73
2020/12/20 03:53:49;;;;;;;6.75;3.47;;;9.80;94.70;;;;;;5034156;28;20075;-69
2020/12/20 03:56:15;;;;;;;6.25;3.40;;;9.80;94.70;;;;;;5033619;28;20069;-69
2020/12/20 03:58:41;;;;;;;8.75;3.60;;;9.80;94.70;;;;;;5015951;28;20040;-72
2020/12/20 04:01:06;;;;;;;7.55;3.60;;;9.70;94.60;;;;;;5034118;28;20445;-69
2020/12/20 04:03:32;;;;;;;6.13;3.30;;;9.80;94.70;;;;;;5033058;28;20538;-74
2020/12/20 04:05:57;;;;;;;5.57;3.05;;;9.80;94.70;;;;;;5034091;28;20025;-72
2020/12/20 04:08:23;;;;;;;7.68;3.78;;;9.80;94.70;;;;;;5033686;28;20021;-68
2020/12/20 04:10:48;;;;;;;6.80;3.55;;;9.80;94.60;;;;;;5032941;28;20104;-68
2020/12/20 04:13:14;;;;;;;7.60;3.17;;;9.80;94.60;;;;;;5035512;28;20088;-69
2020/12/20 04:15:39;;;;;;;6.35;3.17;;;9.80;94.60;;;;;;5039149;28;20041;-68
2020/12/20 04:18:05;;;;;;;9.02;3.58;;;9.80;94.60;;;;;;5037277;28;20045;-68
2020/12/20 04:20:30;;;;;;;9.85;3.72;;;9.80;94.60;;;;;;5015957;28;20029;-68
2020/12/20 04:22:56;;;;;;;8.50;3.30;;;9.80;94.60;;;;;;5032821;28;20014;-68
2020/12/20 04:25:21;;;;;;;6.65;3.10;;;9.80;94.50;;;;;;5015075;28;20014;-70
2020/12/20 04:27:48;;;;;;;7.20;3.95;;;9.80;94.50;;;;;;5033569;28;20561;-68
2020/12/20 04:30:14;;;;;;;8.30;3.60;;;9.80;94.50;;;;;;5033083;28;20025;-69
2020/12/20 04:32:40;;;;;;;8.40;3.60;;;9.80;94.60;;;;;;5032521;28;20132;-68
2020/12/20 04:35:06;;;;;;;8.90;4.15;;;9.80;94.50;;;;;;5033041;28;20025;-69
2020/12/20 04:37:31;;;;;;;11.73;3.53;;;9.80;94.50;;;;;;5033364;28;20042;-69
2020/12/20 04:39:57;;;;;;;7.00;3.13;;;9.80;94.60;;;;;;5032385;28;20034;-69
2020/12/20 04:42:22;;;;;;;7.70;3.00;;;9.80;94.60;;;;;;5032924;28;20103;-69
2020/12/20 04:44:48;;;;;;;6.30;3.22;;;9.80;94.50;;;;;;5033259;28;20025;-69
2020/12/20 04:47:16;;;;;;;6.57;3.60;;;9.80;94.50;;;;;;5014478;28;20025;-71
2020/12/20 04:49:44;;;;;;;12.48;4.32;;;9.80;94.60;;;;;;5033163;28;20036;-69
2020/12/20 04:52:10;;;;;;;14.88;4.28;;;9.80;94.60;;;;;;5032894;28;20021;-69
2020/12/20 04:54:38;;;;;;;6.45;3.28;;;9.80;94.60;;;;;;5033083;28;20504;-69
2020/12/20 04:57:05;;;;;;;8.05;3.53;;;9.80;94.60;;;;;;5032827;28;20033;-71
2020/12/20 04:59:32;;;;;;;8.18;3.08;;;9.80;94.60;;;;;;5033241;28;20466;-71
2020/12/20 05:01:57;;;;;;;8.52;3.20;;;9.70;94.60;;;;;;5032237;28;20021;-70
2020/12/20 05:04:23;;;;;;;5.95;3.30;;;9.80;94.60;;;;;;5033109;28;20026;-69
2020/12/20 05:06:49;;;;;;;7.85;3.17;;;9.80;94.60;;;;;;5032480;28;20084;-69
2020/12/20 05:09:14;;;;;;;10.57;3.20;;;9.80;94.60;;;;;;5032624;28;20049;-70
2020/12/20 05:11:43;;;;;;;6.50;3.17;;;9.80;94.60;;;;;;5032794;28;20079;-69
2020/12/20 05:14:12;;;;;;;8.73;3.40;;;9.80;94.60;;;;;;5031912;28;20572;-70
2020/12/20 05:16:39;;;;;;;8.15;3.17;;;9.80;94.60;;;;;;5032685;28;20056;-69
2020/12/20 05:19:07;;;;;;;10.70;3.63;;;9.80;94.60;;;;;;5014757;28;20021;-71
2020/12/20 05:21:33;;;;;;;11.35;3.92;;;9.80;94.50;;;;;;5032208;28;20022;-69
2020/12/20 05:24:00;;;;;;;5.70;3.00;;;9.80;94.50;;;;;;5032487;28;20029;-72
2020/12/20 05:26:27;;;;;;;7.90;3.40;;;9.70;94.50;;;;;;5032645;28;20118;-69
2020/12/20 05:29:05;;;;;;;6.15;3.13;;;9.70;94.50;;;;;;5031808;28;20140;-69
2020/12/20 05:31:30;;;;;;;7.75;3.13;;;9.80;94.60;;;;;;5032724;28;20100;-70
2020/12/20 05:33:58;;;;;;;9.07;3.70;;;9.70;94.60;;;;;;5032727;28;20053;-70
2020/12/20 05:36:25;;;;;;;7.28;3.05;;;9.80;94.60;;;;;;5035910;28;20080;-71
2020/12/20 05:38:51;;;;;;;11.50;3.05;;;9.80;94.50;;;;;;5036753;28;20031;-69
2020/12/20 05:41:30;;;;;;;8.32;2.83;;;9.80;94.50;;;;;;5018872;28;20405;-69
2020/12/20 05:44:30;;;;;;;6.80;2.88;;;9.80;94.50;;;;;;5017761;28;20018;-68
2020/12/20 05:47:04;;;;;;;8.07;3.17;;;9.80;94.50;;;;;;4976358;28;20040;-72
2020/12/20 05:49:29;;;;;;;9.82;3.55;;;9.80;94.40;;;;;;5035884;28;20052;-72
2020/12/20 05:52:07;;;;;;;8.48;3.05;;;9.80;94.40;;;;;;5018276;28;20462;-71
2020/12/20 05:54:40;;;;;;;5.38;3.10;;;9.80;94.50;;;;;;5018722;28;20030;-70
2020/12/20 05:57:09;;;;;;;12.23;3.45;;;9.80;94.50;;;;;;5035188;28;20048;-70
2020/12/20 05:59:34;;;;;;;4.88;3.08;;;9.80;94.50;;;;;;5018538;28;20072;-71
2020/12/20 06:02:04;;;;;;;7.22;3.00;;;9.80;94.40;;;;;;5035831;28;20421;-70
2020/12/20 06:04:30;;;;;;;8.82;2.83;;;9.80;94.50;;;;;;5035457;28;20048;-70
2020/12/20 06:06:57;;;;;;;14.00;3.80;;;9.70;94.50;;;;;;5035951;28;20022;-70
2020/12/20 06:09:27;;;;;;;8.40;3.15;;;9.70;94.50;;;;;;5036039;28;20033;-71
2020/12/20 06:11:55;;;;;;;9.20;3.30;;;9.70;94.50;;;;;;5034955;28;20425;-69
2020/12/20 06:14:28;;;;;;;8.45;3.72;;;9.70;94.50;;;;;;5036190;28;20029;-71
2020/12/20 06:17:09;;;;;;;7.05;3.22;;;9.70;94.40;;;;;;5017807;28;20029;-70
2020/12/20 06:19:57;;;;;;;9.00;3.42;;;9.80;94.50;;;;;;5035777;28;20021;-69
2020/12/20 06:22:27;;;;;;;10.77;3.63;;;9.70;94.50;;;;;;5035859;28;20025;-70
2020/12/20 06:24:56;;;;;;;8.40;2.92;;;9.70;94.50;;;;;;5017067;28;20022;-70
2020/12/20 06:27:24;;;;;;;8.40;3.30;;;9.70;94.50;;;;;;5035722;28;20041;-71
2020/12/20 06:29:56;;;;;;;14.35;3.55;;;9.70;94.50;;;;;;5035607;28;20474;-70
2020/12/20 06:32:39;;;;;;;12.85;3.40;;;9.70;94.50;;;;;;5034109;28;20029;-70
2020/12/20 06:35:20;;;;;;;6.63;3.60;;;9.70;94.50;;;;;;5035218;28;20017;-71
2020/12/20 06:37:46;;;;;;;7.50;2.95;;;9.70;94.60;;;;;;5023606;28;20030;-68
2020/12/20 06:40:14;;;;;;;7.80;2.92;;;9.70;94.50;;;;;;4997128;28;20112;-68
2020/12/20 06:42:44;;;;;;;12.95;4.65;;;9.60;94.50;;;;;;5015447;28;20120;-68
2020/12/20 06:45:18;;;;;;;7.72;2.90;;;9.60;94.80;;;;;;4997603;28;20112;-69
2020/12/20 06:48:00;;;;;;;11.13;3.67;;;9.60;94.60;;;;;;4998038;28;20030;-68
2020/12/20 06:50:44;;;;;;;;;;;9.60;94.60;;;;;;5016064;28;20021;-67
2020/12/20 06:53:12;;;;;;;9.07;3.10;;;9.60;94.60;;;;;;5014491;28;20008;-68
2020/12/20 06:55:38;;;;;;;7.55;3.42;;;9.60;94.60;;;;;;4997858;28;20061;-69
2020/12/20 06:58:08;;;;;;;9.85;3.30;;;9.70;94.60;;;;;;5027089;28;20045;-68
2020/12/20 07:00:42;;;;;;;6.93;3.20;;;9.70;94.60;;;;;;5034759;28;20076;-71
2020/12/20 07:03:09;;;;;;;7.93;3.22;;;9.80;94.60;;;;;;5034760;28;20080;-69
2020/12/20 07:05:39;;;;;;;6.47;2.80;;;9.80;94.50;;;;;;5017614;28;20083;-70
2020/12/20 07:08:22;;;;;;;9.55;3.38;;;9.80;94.40;;;;;;5034370;28;20030;-69
2020/12/20 07:10:50;;;;;;;7.32;3.22;;;9.70;94.40;;;;;;5035020;28;20021;-71
2020/12/20 07:13:34;;;;;;;8.77;3.20;;;9.70;94.40;;;;;;5033869;28;20021;-70
2020/12/20 07:16:17;;;;;;;9.38;3.30;;;9.70;94.50;;;;;;5034482;28;20072;-69
2020/12/20 07:19:00;;;;;;;9.90;4.25;;;9.60;94.50;;;;;;5034435;28;20056;-72
2020/12/20 07:21:28;;;;;;;7.53;3.40;;;9.60;94.50;;;;;;5015851;28;20025;-70
2020/12/20 07:24:12;;;;;;;11.25;3.42;;;9.60;94.60;;;;;;5034404;28;20096;-74
2020/12/20 07:26:39;;;;;;;11.43;3.05;;;9.50;94.60;;;;;;5017178;28;20034;-72
2020/12/20 07:29:06;;;;;;;10.45;3.22;;;9.50;94.60;;;;;;5033749;28;20025;-70
2020/12/20 07:31:32;;;;;;;10.95;3.75;;;9.40;94.60;;;;;;5034322;28;20075;-69
2020/12/20 07:33:58;;;;;;;11.48;3.75;;;9.50;94.70;;;;;;5034209;28;20099;-69
2020/12/20 07:36:25;;;;;;;6.43;3.22;;;9.40;94.70;;;;;;5033795;28;20494;-69
2020/12/20 07:38:51;;;;;;;8.52;3.20;;;9.40;94.70;;;;;;5034267;28;20056;-73
2020/12/20 07:41:18;;;;;;;9.50;3.30;;;9.40;94.80;;;;;;4999730;28;20462;-73
2020/12/20 07:43:45;;;;;;;7.85;3.30;;;9.40;94.80;;;;;;5015239;28;20071;-69
2020/12/20 07:46:12;;;;;;;8.82;3.53;;;9.40;94.90;;;;;;5016438;28;20112;-70
2020/12/20 07:48:38;;;;;;;9.45;3.22;;;9.30;94.90;;;;;;5016018;28;20053;-69
2020/12/20 07:51:15;;;;;;;10.50;3.17;;;9.40;94.90;;;;;;5033711;28;20113;-70
2020/12/20 07:53:55;;;;;;;10.70;4.03;;;9.30;94.90;;;;;;5034312;28;20022;-72
2020/12/20 07:56:32;;;;;;;10.25;3.00;;;9.30;94.90;;;;;;5033146;28;20527;-72
2020/12/20 07:59:12;;;;;;;9.70;3.30;;;9.30;95.00;;;;;;5033636;28;20075;-69
2020/12/20 08:01:39;;;;;;;8.82;2.83;;;9.30;95.00;;;;;;5033633;28;20032;-72
2020/12/20 08:04:08;;;;;;;10.48;3.20;;;9.30;95.00;;;;;;5032885;28;20018;-71
2020/12/20 08:06:38;;;;;;;10.88;3.35;;;9.30;95.10;;;;;;5033581;28;20478;-69
2020/12/20 08:09:18;;;;;;;12.82;3.40;;;9.30;95.10;;;;;;5033626;28;20099;-69
2020/12/20 08:11:45;;;;;;;10.65;3.70;;;9.30;95.10;;;;;;5033299;28;20037;-69
2020/12/20 08:14:13;;;;;;;9.02;3.17;;;9.30;95.10;;;;;;5033417;28;20021;-71
2020/12/20 08:16:41;;;;;;;10.40;3.20;;;9.30;95.10;;;;;;5033176;28;20465;-71
2020/12/20 08:19:20;;;;;;;13.13;4.45;;;9.30;95.10;;;;;;5032695;28;20124;-69
2020/12/20 08:22:03;;;;;;;7.75;3.85;;;9.30;95.10;;;;;;5033010;28;20037;-70
2020/12/20 08:24:31;;;;;;;10.70;3.58;;;9.40;95.10;;;;;;5032832;28;20528;-70
2020/12/20 08:26:58;;;;;;;9.88;3.25;;;9.40;95.10;;;;;;5033342;28;20131;-73
2020/12/20 08:29:24;;;;;;;12.23;3.80;;;9.40;95.10;;;;;;5033629;28;20109;-68
2020/12/20 08:31:49;;;;;;;10.07;3.10;;;9.40;95.10;;;;;;5008474;28;20017;-71
2020/12/20 08:34:21;;;;;;;12.77;3.90;;;9.50;95.10;;;;;;5014472;28;20087;-70
2020/12/20 08:36:53;;;;;;;9.48;3.60;;;9.50;95.00;;;;;;5030133;28;20057;-76
2020/12/20 08:39:23;;;;;;;8.88;3.25;;;9.60;94.90;;;;;;5011194;28;20030;-75
2020/12/20 08:42:06;;;;;;;14.77;3.90;;;9.70;94.90;;;;;;5030666;28;20055;-74
2020/12/20 08:44:32;;;;;;;12.93;3.40;;;9.70;94.80;;;;;;5014414;28;20040;-73
2020/12/20 08:47:24;;;;;;;9.18;3.17;;;9.80;94.70;;;;;;5014072;28;20029;-76
2020/12/20 08:49:57;;;;;;;10.82;3.50;;;9.90;94.70;;;;;;5018948;28;20038;-76
2020/12/20 08:52:26;;;;;;;14.90;3.63;;;9.90;94.60;;;;;;5012371;28;20089;-81
2020/12/20 08:54:52;;;;;;;11.43;3.00;;;10.00;94.50;;;;;;4994977;28;20030;-74
2020/12/20 08:57:24;;;;;;;9.40;3.40;;;10.10;94.50;;;;;;5027381;28;20083;-77
2020/12/20 08:59:49;;;;;;;;;;;10.10;94.40;;;;;;5030491;28;20017;-74
2020/12/20 09:02:22;;;;;;;6.28;3.03;;;10.10;94.30;;;;;;5031293;28;19944;-74
2020/12/20 09:05:03;;;;;;;16.33;4.10;;;10.10;94.20;;;;;;5014296;28;20112;-81
2020/12/20 09:07:41;;;;;;;14.60;4.03;;;10.10;94.10;;;;;;5031672;28;20037;-78
2020/12/20 09:10:15;;;;;;;11.48;3.38;;;10.20;94.20;;;;;;5014362;28;20024;-76
2020/12/20 09:12:57;;;;;;;10.20;3.40;;;10.20;94.10;;;;;;5035244;28;20363;-77
2020/12/20 09:15:30;;;;;;;11.15;3.42;;;10.20;94.10;;;;;;4997961;28;20017;-82
2020/12/20 09:17:58;;;;;;;9.45;3.20;;;10.30;94.10;;;;;;5013974;28;20034;-75
2020/12/20 09:20:29;;;;;;;12.55;3.47;;;10.30;94.10;;;;;;5023518;28;20028;-75
2020/12/20 09:22:57;;;;;;;12.50;3.70;;;10.30;94.00;;;;;;5012525;28;20103;-72
2020/12/20 09:25:37;;;;;;;9.43;3.25;;;10.40;94.00;;;;;;5030429;28;20034;-77
2020/12/20 09:28:09;;;;;;;9.50;3.25;;;10.40;93.70;;;;;;5003002;28;20022;-80
2020/12/20 09:30:44;;;;;;;16.05;4.55;;;10.50;93.70;;;;;;5032549;28;20025;-74
2020/12/20 09:33:20;;;;;;;10.60;3.65;;;10.50;93.70;;;;;;5013820;28;20501;-73
2020/12/20 09:35:50;;;;;;;8.73;3.13;;;10.50;93.70;;;;;;5031058;28;20421;-75
2020/12/20 09:38:15;;;;;;;13.65;3.25;;;10.60;93.60;;;;;;5012154;28;20025;-75
2020/12/20 09:40:41;;;;;;;16.38;3.80;;;10.60;93.50;;;;;;5031299;28;20034;-75
2020/12/20 09:43:06;;;;;;;21.38;4.20;;;10.70;93.40;;;;;;5013030;28;20095;-76
2020/12/20 09:45:32;;;;;;;10.82;3.72;;;10.70;93.40;;;;;;5013324;28;20099;-74
2020/12/20 09:47:57;;;;;;;18.02;3.90;;;10.70;93.30;;;;;;5031098;28;20022;-77
2020/12/20 09:50:23;;;;;;;12.27;3.50;;;10.70;93.20;;;;;;5031351;28;20540;-75
2020/12/20 09:52:49;;;;;;;13.20;3.67;;;10.70;93.20;;;;;;5014173;28;20105;-74
2020/12/20 09:55:14;;;;;;;13.23;3.72;;;10.80;93.10;;;;;;5030792;28;20018;-75
2020/12/20 09:57:40;;;;;;;16.02;4.32;;;10.80;92.90;;;;;;5030965;28;20038;-74
2020/12/20 10:00:05;;;;;;;16.88;3.72;;;10.90;92.90;;;;;;5032390;28;20029;-75
2020/12/20 10:02:31;;;;;;;11.05;4.00;;;10.90;92.80;;;;;;5013151;28;20140;-76
2020/12/20 10:04:56;;;;;;;9.02;3.50;;;10.90;92.80;;;;;;5031539;28;20025;-83
2020/12/20 10:07:22;;;;;;;10.98;3.55;;;10.90;92.70;;;;;;5013721;28;20029;-76
2020/12/20 10:09:47;;;;;;;10.13;3.72;;;10.90;92.70;;;;;;5031289;28;20029;-74
2020/12/20 10:12:15;;;;;;;12.43;3.58;;;10.90;92.70;;;;;;5012839;28;20034;-75
2020/12/20 10:14:43;;;;;;;11.93;3.78;;;11.00;92.70;;;;;;5013306;28;20017;-75
2020/12/20 10:17:09;;;;;;;19.90;3.95;;;11.00;92.60;;;;;;5000093;28;20125;-74
2020/12/20 10:19:34;;;;;;;11.70;3.92;;;11.00;92.60;;;;;;5022661;28;20147;-73
2020/12/20 10:22:00;;;;;;;17.08;3.70;;;11.00;92.50;;;;;;5017105;28;20112;-73
2020/12/20 10:24:26;;;;;;;9.50;3.10;;;11.10;92.60;;;;;;5034591;28;20026;-75
2020/12/20 10:26:51;;;;;;;9.90;3.65;;;11.10;92.40;;;;;;5027627;28;20033;-71
2020/12/20 10:29:17;;;;;;;12.88;3.95;;;11.20;92.60;;;;;;5035185;28;20017;-74
2020/12/20 10:31:45;;;;;;;14.80;4.22;;;11.30;92.30;;;;;;5003639;28;20398;-74
2020/12/20 10:34:11;;;;;;;10.43;3.67;;;11.20;92.20;;;;;;5014739;28;20026;-73
2020/12/20 10:36:38;;;;;;;12.30;3.88;;;11.30;92.10;;;;;;5026560;28;20496;-73
2020/12/20 10:39:06;;;;;;;14.90;4.05;;;11.30;92.00;;;;;;5026265;28;20024;-73
2020/12/20 10:41:38;;;;;;;15.00;3.65;;;11.30;92.00;;;;;;5046295;28;20041;-74
2020/12/20 10:44:07;;;;;;;17.13;5.53;;;11.40;92.00;;;;;;5030968;28;20494;-74
2020/12/20 10:46:36;;;;;;;12.00;3.60;;;11.40;92.00;;;;;;5024953;28;20088;-74
2020/12/20 10:49:03;;;;;;;12.20;3.58;;;11.40;91.80;;;;;;5034524;28;20029;-76
2020/12/20 10:51:29;;;;;;;17.58;3.85;;;11.40;91.70;;;;;;5034455;28;20035;-76
2020/12/20 10:53:55;;;;;;;19.20;3.88;;;11.40;91.70;;;;;;5016921;28;20025;-75
2020/12/20 10:56:21;;;;;;;18.48;3.63;;;11.40;91.70;;;;;;5016651;28;20030;-74
2020/12/20 10:58:48;;;;;;;13.18;3.50;;;11.30;91.60;;;;;;5033983;28;20855;-75
2020/12/20 11:01:18;;;;;;;12.13;3.60;;;11.30;91.70;;;;;;5016721;28;20120;-76
2020/12/20 11:03:48;;;;;;;21.88;4.53;;;11.40;91.80;;;;;;5034668;28;20013;-77
2020/12/20 11:06:17;;;;;;;18.73;4.22;;;11.40;91.80;;;;;;5033821;28;20045;-77
2020/12/20 11:08:43;;;;;;;14.18;3.58;;;11.40;91.70;;;;;;5016093;28;20022;-76
2020/12/20 11:11:09;;;;;;;17.10;3.67;;;11.40;91.50;;;;;;5016207;28;20041;-78
2020/12/20 11:13:36;;;;;;;16.85;4.15;;;11.40;91.40;;;;;;5033609;28;20051;-78
2020/12/20 11:16:02;;;;;;;14.15;3.97;;;11.40;91.40;;;;;;5034257;28;20548;-74
2020/12/20 11:18:28;;;;;;;12.75;3.63;;;11.40;91.40;;;;;;5016643;28;20030;-76
2020/12/20 11:20:53;;;;;;;18.55;4.55;;;11.40;91.50;;;;;;5033170;28;20022;-78
2020/12/20 11:23:19;;;;;;;18.30;4.57;;;11.30;91.50;;;;;;5034197;28;20052;-75
2020/12/20 11:25:44;;;;;;;14.02;4.38;;;11.50;91.60;;;;;;5016284;28;20029;-73
2020/12/20 11:28:10;;;;;;;12.27;3.70;;;11.50;91.50;;;;;;5032707;28;20022;-74
2020/12/20 11:30:35;;;;;;;12.63;3.88;;;11.60;91.20;;;;;;5034086;28;20049;-74
2020/12/20 11:33:01;;;;;;;13.27;4.18;;;11.60;91.10;;;;;;5032559;28;20040;-75
2020/12/20 11:35:26;;;;;;;15.13;3.95;;;11.70;91.10;;;;;;5032955;28;20060;-74
2020/12/20 11:37:52;;;;;;;14.00;4.57;;;11.80;91.00;;;;;;5015952;28;20021;-75
2020/12/20 11:40:17;;;;;;;13.68;4.20;;;11.90;90.90;;;;;;5034471;28;20386;-74
2020/12/20 11:42:43;;;;;;;16.23;4.13;;;12.00;90.80;;;;;;5015621;28;20045;-74
2020/12/20 11:45:08;;;;;;;14.88;4.13;;;12.10;90.50;;;;;;5016587;28;20029;-73
2020/12/20 11:47:38;;;;;;;17.40;4.05;;;12.00;90.40;;;;;;5016304;28;20020;-74
2020/12/20 11:50:03;;;;;;;12.60;3.95;;;12.10;90.50;;;;;;5015241;28;20057;-73
2020/12/20 11:52:33;;;;;;;14.32;4.25;;;12.00;90.30;;;;;;5033178;28;20460;-71
2020/12/20 11:54:59;;;;;;;14.52;4.68;;;12.00;90.40;;;;;;5032030;28;20029;-69
2020/12/20 11:57:24;;;;;;;15.82;3.95;;;12.00;90.30;;;;;;5033734;28;20042;-70
2020/12/20 11:59:50;;;;;;;14.77;5.00;;;12.00;90.10;;;;;;5033907;28;20061;-71
2020/12/20 12:02:15;;;;;;;15.55;4.63;;;12.00;90.00;;;;;;5032956;28;20025;-71
2020/12/20 12:04:41;;;;;;;17.48;4.55;;;11.90;90.00;;;;;;5034197;28;20544;-71
2020/12/20 12:07:07;;;;;;;17.30;4.93;;;11.90;90.10;;;;;;5033528;28;20509;-71
2020/12/20 12:09:32;;;;;;;16.23;4.55;;;11.90;90.20;;;;;;5033111;28;20071;-74
2020/12/20 12:11:58;;;;;;;14.20;4.35;;;11.90;90.30;;;;;;5033734;28;20061;-73
2020/12/20 12:14:23;;;;;;;14.90;4.80;;;12.00;90.20;;;;;;5033788;28;20104;-73
2020/12/20 12:16:49;;;;;;;11.93;4.22;;;12.10;90.10;;;;;;5033250;28;20041;-74
2020/12/20 12:19:14;;;;;;;16.45;4.20;;;12.10;90.10;;;;;;5015728;28;20025;-76
2020/12/20 12:21:40;;;;;;;17.67;5.47;;;12.20;90.00;;;;;;5034023;28;20032;-73
2020/12/20 12:24:05;;;;;;;17.20;5.20;;;12.20;89.60;;;;;;5032873;28;20083;-73
2020/12/20 12:26:31;;;;;;;14.68;4.22;;;12.20;89.40;;;;;;5033644;28;20025;-75
2020/12/20 12:28:56;;;;;;;20.30;5.40;;;12.30;89.40;;;;;;5033318;28;20485;-72
2020/12/20 12:31:22;;;;;;;15.88;4.60;;;12.30;89.30;;;;;;5032793;28;20079;-71
2020/12/20 12:33:47;;;;;;;17.58;5.65;;;12.30;89.40;;;;;;5033402;28;20026;-73
2020/12/20 12:36:13;;;;;;;15.77;5.10;;;12.20;89.30;;;;;;5033081;28;20083;-72
2020/12/20 12:38:38;;;;;;;18.63;5.38;;;12.20;89.40;;;;;;5015053;28;20018;-76
2020/12/20 12:41:04;;;;;;;15.02;4.50;;;12.20;89.40;;;;;;5015334;28;20425;-73
2020/12/20 12:43:29;;;;;;;20.80;5.80;;;12.20;89.30;;;;;;5033347;28;20026;-73
2020/12/20 12:45:55;;;;;;;15.40;4.85;;;12.20;89.20;;;;;;5014923;28;20029;-75
2020/12/20 12:48:21;;;;;;;16.77;4.32;;;12.20;89.00;;;;;;5033537;28;20018;-76
2020/12/20 12:50:46;;;;;;;16.27;4.78;;;12.20;89.20;;;;;;5015368;28;20026;-75